Time;durP1;ratioP1;P1;durP2;ratioP2;P2;SDS_P1;SDS_P2;PMS_P1;PMS_P2;Temp;Humidity;BMP_temperature;BMP_pressure;BME280_temperature;BME280_humidity;BME280_pressure;Samples;Min_cycle;Max_cycle;Signal;HPM_P1;HPM_P2
2022/01/13 00:02:13;;;;;;;1.73;1.00;;;;;;;8.90;100.00;102677.53;5117234;28;20061;-84
2022/01/13 00:04:40;;;;;;;3.75;1.17;;;;;;;8.52;100.00;102643.56;5122960;27;20043;-83
2022/01/13 00:07:07;;;;;;;2.40;1.30;;;;;;;8.62;100.00;102647.06;5136056;27;20085;-83
2022/01/13 00:09:33;;;;;;;2.95;1.10;;;;;;;8.63;100.00;102652.28;5139077;27;20397;-83
2022/01/13 00:12:00;;;;;;;2.42;1.13;;;;;;;8.59;100.00;102666.22;5139566;27;20051;-84
2022/01/13 00:14:41;;;;;;;2.58;1.10;;;;;;;8.44;100.00;102666.19;5139868;27;20054;-84
2022/01/13 00:25:53;;;;;;;4.55;1.50;;;;;;;8.21;100.00;102686.97;5143417;27;20090;-84
2022/01/13 00:28:21;;;;;;;5.85;1.73;;;;;;;8.08;100.00;102692.13;5140056;27;20058;-83
2022/01/13 00:30:53;;;;;;;7.43;1.98;;;;;;;7.79;100.00;102663.28;5140121;27;20130;-83
2022/01/13 00:33:24;;;;;;;5.97;1.90;;;;;;;7.94;100.00;102688.59;5119142;27;20058;-83
2022/01/13 00:35:53;;;;;;;6.10;1.40;;;;;;;7.95;100.00;102688.59;5119422;27;20050;-83
2022/01/13 00:38:19;;;;;;;4.57;1.60;;;;;;;7.84;100.00;102684.19;5137037;27;20043;-83
2022/01/13 00:40:46;;;;;;;5.80;1.73;;;;;;;7.75;100.00;102692.84;5135555;27;20047;-83
2022/01/13 00:43:13;;;;;;;4.60;1.70;;;;;;;7.68;100.00;102689.31;5157488;27;20042;-84
2022/01/13 00:45:40;;;;;;;3.92;1.50;;;;;;;7.51;100.00;102668.38;5158282;27;20072;-84
2022/01/13 00:48:07;;;;;;;4.68;1.63;;;;;;;7.58;100.00;102701.44;5169753;27;20054;-84
2022/01/13 00:50:34;;;;;;;2.97;1.25;;;;;;;7.56;100.00;102666.69;5138410;27;20057;-84
2022/01/13 00:53:01;;;;;;;3.28;1.40;;;;;;;7.49;100.00;102664.00;5139340;27;20408;-85
2022/01/13 00:55:44;;;;;;;2.75;1.30;;;;;;;7.45;100.00;102672.66;5157554;27;20050;-85
2022/01/13 00:58:12;;;;;;;2.03;1.10;;;;;;;7.74;100.00;102696.31;5157875;27;20074;-85
2022/01/13 01:00:40;;;;;;;2.38;1.20;;;;;;;7.67;100.00;102692.81;5138193;27;20118;-84
2022/01/13 01:03:08;;;;;;;2.70;1.20;;;;;;;7.77;100.00;102717.19;5157975;27;20050;-85
2022/01/13 01:05:36;;;;;;;1.67;1.00;;;;;;;7.74;100.00;102696.31;5150577;27;20429;-83
2022/01/13 01:08:05;;;;;;;1.42;1.00;;;;;;;7.64;100.00;102671.06;5167867;27;20043;-84
2022/01/13 01:10:33;;;;;;;2.17;1.20;;;;;;;7.95;100.00;102706.88;5162997;27;20058;-84
2022/01/13 01:13:05;;;;;;;3.13;1.20;;;;;;;7.81;100.00;102685.06;5178365;27;20093;-84
2022/01/13 01:15:34;;;;;;;3.28;1.13;;;;;;;7.88;100.00;102688.56;5151684;27;20039;-83
2022/01/13 01:18:08;;;;;;;3.00;1.20;;;;;;;7.78;100.00;102696.34;5150066;27;20129;-84
2022/01/13 01:20:47;;;;;;;2.45;1.13;;;;;;;7.65;100.00;102697.16;5138048;27;20057;-83
2022/01/13 01:23:21;;;;;;;3.17;1.65;;;;;;;7.56;100.00;102695.34;5158829;27;20054;-83
2022/01/13 01:26:04;;;;;;;2.67;1.35;;;;;;;7.56;100.00;102705.78;5159565;27;20495;-83
2022/01/13 01:28:42;;;;;;;3.83;1.30;;;;;;;7.43;100.00;102687.44;5159847;27;20042;-84
2022/01/13 01:31:10;;;;;;;3.20;1.30;;;;;;;7.39;100.00;102681.31;5144955;27;20053;-85
2022/01/13 01:33:40;;;;;;;2.35;1.23;;;;;;;7.49;100.00;102714.41;5159313;27;20062;-84
2022/01/13 01:36:12;;;;;;;3.00;1.20;;;;;;;7.60;100.00;102727.53;5150392;27;20070;-84
2022/01/13 01:38:41;;;;;;;2.65;1.10;;;;;;;7.55;100.00;102721.41;5139135;27;20476;-84
2022/01/13 01:41:08;;;;;;;3.20;1.20;;;;;;;7.65;100.00;102707.56;5141959;27;20705;-83
2022/01/13 01:43:35;;;;;;;2.53;1.17;;;;;;;7.64;100.00;102711.03;5138095;27;20472;-84
2022/01/13 01:46:02;;;;;;;3.85;1.20;;;;;;;7.78;100.00;102698.94;5138420;27;20047;-85
2022/01/13 01:48:34;;;;;;;3.17;1.38;;;;;;;7.80;100.00;102685.91;5133869;27;20054;-84
2022/01/13 01:51:02;;;;;;;2.55;1.10;;;;;;;7.93;100.00;102698.16;5150320;27;20057;-84
2022/01/13 01:53:29;;;;;;;1.45;0.90;;;;;;;7.97;100.00;102699.91;5147637;27;20054;-84
2022/01/13 01:55:56;;;;;;;2.38;1.00;;;;;;;7.95;100.00;102700.75;5138720;27;20042;-84
2022/01/13 01:58:28;;;;;;;1.42;1.05;;;;;;;7.85;100.00;102670.31;5138353;27;20042;-84
2022/01/13 02:00:55;;;;;;;1.40;1.00;;;;;;;7.82;100.00;102676.34;5155475;27;20076;-83
2022/01/13 02:03:24;;;;;;;1.75;0.98;;;;;;;7.84;100.00;102679.84;5150829;27;20042;-83
2022/01/13 02:05:52;;;;;;;2.00;1.05;;;;;;;7.88;100.00;102672.91;5146383;27;20046;-84
2022/01/13 02:08:18;;;;;;;1.40;1.10;;;;;;;7.75;100.00;102664.16;5137985;27;20054;-84
2022/01/13 02:10:45;;;;;;;1.85;1.05;;;;;;;7.65;100.00;102675.38;5154708;27;20491;-83
2022/01/13 02:13:18;;;;;;;3.53;1.25;;;;;;;7.68;100.00;102676.28;5137211;27;20464;-83
2022/01/13 02:16:17;;;;;;;2.22;1.00;;;;;;;7.66;100.00;102678.00;5155255;27;20049;-83
2022/01/13 02:18:33;;;;;;;2.00;1.00;;;;;;;7.64;100.00;102674.53;5155265;27;20050;-83
2022/01/13 02:21:01;;;;;;;3.10;1.10;;;;;;;7.79;100.00;102690.25;5154806;27;20476;-83
2022/01/13 02:23:34;;;;;;;2.47;0.90;;;;;;;7.79;100.00;102671.13;5167146;27;20471;-82
2022/01/13 02:26:03;;;;;;;2.03;1.08;;;;;;;7.79;100.00;102668.50;5142858;27;20058;-83
2022/01/13 02:28:30;;;;;;;1.13;0.90;;;;;;;7.85;100.00;102675.50;5157694;27;20042;-83
2022/01/13 02:30:58;;;;;;;1.48;1.00;;;;;;;7.73;100.00;102686.75;5142679;27;20046;-83
2022/01/13 02:33:25;;;;;;;2.25;1.05;;;;;;;7.67;100.00;102679.78;5135157;27;20047;-83
2022/01/13 02:35:52;;;;;;;1.80;1.10;;;;;;;7.71;100.00;102673.69;5116454;27;20047;-83
2022/01/13 02:38:19;;;;;;;1.10;0.98;;;;;;;7.66;100.00;102677.16;5137288;27;20049;-83
2022/01/13 02:40:53;;;;;;;5.78;1.20;;;;;;;7.71;100.00;102689.34;5161927;27;20038;-84
2022/01/13 02:43:20;;;;;;;1.73;1.10;;;;;;;7.64;100.00;102676.28;5137220;27;20051;-83
2022/01/13 02:46:28;;;;;;;1.35;1.10;;;;;;;7.64;100.00;102671.06;5136964;27;20046;-84
2022/01/13 02:48:40;;;;;;;2.58;1.20;;;;;;;7.67;100.00;102673.69;5139162;27;20365;-84
2022/01/13 02:51:07;;;;;;;1.85;1.00;;;;;;;7.79;100.00;102679.84;5144885;27;20467;-84
2022/01/13 02:53:34;;;;;;;1.95;1.00;;;;;;;7.49;100.00;102656.19;5176290;27;20054;-83
2022/01/13 02:56:04;;;;;;;1.77;1.05;;;;;;;7.24;100.00;102614.31;5157371;27;20074;-83
2022/01/13 02:58:32;;;;;;;1.98;1.10;;;;;;;7.42;100.00;102644.88;5174941;27;20052;-83
2022/01/13 03:01:00;;;;;;;2.30;1.00;;;;;;;7.57;100.00;102654.50;5136311;27;20053;-83
2022/01/13 03:03:29;;;;;;;1.50;1.10;;;;;;;7.53;100.00;102635.38;5136155;27;20050;-83
2022/01/13 03:05:56;;;;;;;1.58;1.00;;;;;;;7.59;100.00;102650.16;5136468;27;20054;-84
2022/01/13 03:08:24;;;;;;;1.55;1.00;;;;;;;7.76;100.00;102660.69;5155321;27;20066;-83
2022/01/13 03:10:51;;;;;;;2.22;1.00;;;;;;;7.57;100.00;102641.47;5132159;27;20054;-83
2022/01/13 03:13:22;;;;;;;1.80;1.10;;;;;;;7.43;100.00;102623.13;5154170;27;20427;-83
2022/01/13 03:15:49;;;;;;;1.50;1.00;;;;;;;7.51;100.00;102626.66;5150391;27;20049;-83
2022/01/13 03:18:15;;;;;;;1.23;1.00;;;;;;;7.65;100.00;102642.41;5140181;27;20051;-83
2022/01/13 03:20:42;;;;;;;2.03;1.05;;;;;;;7.73;100.00;102637.19;5135243;27;20780;-84
2022/01/13 03:23:10;;;;;;;1.05;0.90;;;;;;;7.61;100.00;102617.16;5143457;27;20053;-83
2022/01/13 03:25:37;;;;;;;1.00;0.90;;;;;;;7.63;100.00;102617.16;5157571;27;20407;-84
2022/01/13 03:28:07;;;;;;;4.75;1.20;;;;;;;7.56;100.00;102617.16;5141099;27;20053;-83
2022/01/13 03:30:33;;;;;;;1.40;1.02;;;;;;;7.34;100.00;102602.25;5141157;27;20046;-84
2022/01/13 03:33:02;;;;;;;1.38;1.00;;;;;;;7.42;100.00;102577.09;5167689;27;20050;-84
2022/01/13 03:35:29;;;;;;;1.35;1.00;;;;;;;7.37;100.00;102564.03;5137076;27;20078;-83
2022/01/13 03:37:57;;;;;;;1.65;1.00;;;;;;;7.50;100.00;102562.34;5175041;27;20128;-84
2022/01/13 03:40:25;;;;;;;1.30;0.98;;;;;;;7.59;100.00;102577.16;5160374;27;20436;-83
2022/01/13 03:42:53;;;;;;;1.35;1.00;;;;;;;7.75;100.00;102575.50;5135315;27;20125;-84
2022/01/13 03:45:21;;;;;;;1.48;1.00;;;;;;;8.05;100.00;102592.13;5135508;27;20061;-83
2022/01/13 03:47:48;;;;;;;1.00;0.90;;;;;;;7.94;100.00;102579.03;5136215;27;20466;-84
2022/01/13 03:50:15;;;;;;;1.88;1.00;;;;;;;7.66;100.00;102555.47;5131707;27;20129;-84
2022/01/13 03:53:02;;;;;;;2.50;1.10;;;;;;;7.67;100.00;102546.78;5122905;27;20404;-84
2022/01/13 03:55:35;;;;;;;1.88;1.10;;;;;;;7.87;100.00;102577.28;5109535;27;20046;-84
2022/01/13 03:58:39;;;;;;;1.70;1.00;;;;;;;7.77;100.00;102582.47;5154117;27;20053;-83
2022/01/13 04:01:24;;;;;;;;;;;;;;;7.92;100.00;102572.94;5135822;27;20042;-84
2022/01/13 04:03:51;;;;;;;1.23;0.90;;;;;;;7.65;100.00;102587.63;5136000;27;19919;-84
2022/01/13 04:06:17;;;;;;;1.95;1.00;;;;;;;7.57;100.00;102584.97;5142705;27;20054;-84
2022/01/13 04:08:47;;;;;;;3.08;1.52;;;;;;;7.30;100.00;102554.44;5149207;27;20049;-82
2022/01/13 04:11:17;;;;;;;2.35;1.10;;;;;;;7.59;100.00;102583.25;5123876;27;20049;-84
2022/01/13 04:14:00;;;;;;;4.00;1.10;;;;;;;7.52;100.00;102580.63;5147604;27;20047;-84
2022/01/13 04:16:30;;;;;;;1.83;1.10;;;;;;;7.46;100.00;102576.25;5153979;27;20043;-84
2022/01/13 04:19:02;;;;;;;1.20;1.00;;;;;;;7.43;100.00;102575.38;5133212;27;20096;-84
2022/01/13 04:21:30;;;;;;;1.00;0.90;;;;;;;7.61;100.00;102585.88;5153725;27;20069;-83
2022/01/13 04:23:57;;;;;;;2.45;1.15;;;;;;;7.37;100.00;102581.44;5134967;27;20083;-83
2022/01/13 04:26:29;;;;;;;5.80;1.10;;;;;;;7.27;100.00;102590.03;5135044;27;20095;-83
2022/01/13 04:31:42;;;;;;;1.85;1.00;;;;;;;7.58;100.00;102580.66;5153381;27;20046;-84
2022/01/13 04:34:10;;;;;;;2.08;1.00;;;;;;;7.55;100.00;102578.03;5135569;27;20057;-83
2022/01/13 04:36:37;;;;;;;1.85;1.00;;;;;;;7.51;100.00;102566.72;5165758;27;20052;-84
2022/01/13 04:39:06;;;;;;;4.80;1.75;;;;;;;7.74;100.00;102578.97;5169330;27;20038;-84
2022/01/13 04:41:35;;;;;;;1.85;1.00;;;;;;;7.58;100.00;102560.66;5131765;27;20051;-83
2022/01/13 04:44:09;;;;;;;2.70;1.00;;;;;;;7.66;100.00;102572.84;5135503;27;20050;-83
2022/01/13 04:46:37;;;;;;;2.47;1.20;;;;;;;7.50;100.00;102554.53;5135983;27;20046;-84
2022/01/13 04:49:05;;;;;;;1.63;1.02;;;;;;;7.71;100.00;102582.44;5132591;27;20372;-84
2022/01/13 04:51:32;;;;;;;3.33;1.10;;;;;;;7.49;100.00;102531.06;5132074;27;20046;-84
2022/01/13 04:53:58;;;;;;;2.38;1.00;;;;;;;7.77;100.00;102547.69;5133461;27;20057;-84
2022/01/13 04:59:05;;;;;;;1.23;1.00;;;;;;;7.62;100.00;102556.34;5170106;27;20042;-84
2022/01/13 05:01:32;;;;;;;1.25;0.90;;;;;;;7.79;100.00;102558.97;5150153;27;20494;-84
2022/01/13 05:03:59;;;;;;;1.23;0.90;;;;;;;7.81;100.00;102567.72;5142516;27;20046;-84
2022/01/13 05:06:26;;;;;;;1.00;0.90;;;;;;;7.64;100.00;102540.69;5143193;27;20056;-84
2022/01/13 05:08:53;;;;;;;1.63;1.00;;;;;;;7.60;100.00;102522.44;5137429;27;20039;-83
2022/01/13 05:11:20;;;;;;;1.38;0.90;;;;;;;7.88;100.00;102574.69;5138221;27;20061;-84
2022/01/13 05:13:47;;;;;;;2.38;1.00;;;;;;;7.87;100.00;102585.97;5129345;27;20049;-84
2022/01/13 05:18:55;;;;;;;;;;;;;;;8.17;100.00;102608.66;5145999;27;20126;-83
2022/01/13 05:21:25;;;;;;;1.55;1.00;;;;;;;7.87;100.00;102577.28;5156699;27;19922;-84
2022/01/13 05:23:52;;;;;;;1.38;1.00;;;;;;;7.89;100.00;102583.38;5128512;27;20050;-83
2022/01/13 05:26:22;;;;;;;1.75;1.00;;;;;;;7.88;100.00;102603.38;5149797;27;20082;-84
2022/01/13 05:28:49;;;;;;;1.00;0.90;;;;;;;7.70;100.00;102614.59;5128570;27;20046;-83
2022/01/13 05:31:16;;;;;;;1.88;0.90;;;;;;;7.70;100.00;102601.56;5150892;27;20393;-84
2022/01/13 05:33:43;;;;;;;2.50;1.05;;;;;;;7.79;100.00;102616.34;5131019;27;20046;-84
2022/01/13 05:36:09;;;;;;;2.40;1.00;;;;;;;7.69;100.00;102612.84;5127587;27;20511;-84
2022/01/13 05:38:37;;;;;;;2.63;1.00;;;;;;;7.84;100.00;102612.03;5127209;27;20413;-84
2022/01/13 05:41:04;;;;;;;2.22;1.00;;;;;;;7.90;100.00;102612.06;5136395;27;20411;-83
2022/01/13 05:43:31;;;;;;;1.98;0.93;;;;;;;7.72;100.00;102612.88;5134769;27;20049;-83
2022/01/13 05:45:58;;;;;;;1.48;0.90;;;;;;;7.57;100.00;102599.75;5153316;27;20097;-83
2022/01/13 05:48:24;;;;;;;1.20;1.00;;;;;;;7.62;100.00;102636.28;5148420;27;20053;-83
2022/01/13 05:50:51;;;;;;;1.48;0.90;;;;;;;7.49;100.00;102617.09;5133353;27;20042;-85
2022/01/13 05:53:18;;;;;;;2.55;1.00;;;;;;;7.35;100.00;102620.50;5130760;27;20043;-84
2022/01/13 05:55:45;;;;;;;1.45;0.93;;;;;;;7.15;100.00;102599.53;5128355;27;20396;-84
2022/01/13 05:58:12;;;;;;;1.33;1.00;;;;;;;7.47;100.00;102629.25;5123799;27;20051;-84
2022/01/13 06:00:39;;;;;;;1.65;1.00;;;;;;;7.36;100.00;102613.53;5147045;27;20058;-84
2022/01/13 06:03:06;;;;;;;1.55;1.05;;;;;;;7.48;100.00;102613.63;5129587;27;20051;-83
2022/01/13 06:05:33;;;;;;;5.05;1.10;;;;;;;7.41;100.00;102624.88;5132669;27;20105;-83
2022/01/13 06:08:00;;;;;;;1.92;1.00;;;;;;;7.34;100.00;102584.00;5126018;27;20568;-84
2022/01/13 06:10:27;;;;;;;1.48;1.00;;;;;;;7.34;100.00;102607.47;5151598;27;20043;-83
2022/01/13 06:12:54;;;;;;;1.88;1.10;;;;;;;7.08;100.00;102543.03;5143308;27;20051;-83
2022/01/13 06:15:23;;;;;;;1.25;1.00;;;;;;;7.32;100.00;102570.97;5137640;27;20057;-84
2022/01/13 06:17:53;;;;;;;2.35;1.20;;;;;;;7.56;100.00;102611.94;5150205;27;20043;-84
2022/01/13 06:20:21;;;;;;;1.88;1.05;;;;;;;7.67;100.00;102617.19;5147189;27;20050;-83
2022/01/13 06:22:51;;;;;;;1.20;1.00;;;;;;;7.59;100.00;102603.25;5152125;27;20409;-82
2022/01/13 06:25:19;;;;;;;1.20;1.10;;;;;;;7.37;100.00;102599.66;5134549;27;20050;-83
2022/01/13 06:27:47;;;;;;;1.25;1.00;;;;;;;6.90;100.00;102553.34;5147375;27;20050;-85
2022/01/13 06:30:33;;;;;;;1.40;1.00;;;;;;;7.02;100.00;102563.84;5134431;27;20039;-83
2022/01/13 06:33:01;;;;;;;1.70;1.15;;;;;;;6.90;100.00;102582.00;5149818;27;20055;-83
2022/01/13 06:35:27;;;;;;;1.80;1.10;;;;;;;6.83;100.00;102581.97;5128348;27;20051;-84
2022/01/13 06:37:54;;;;;;;2.05;1.20;;;;;;;6.98;100.00;102599.41;5145091;27;20039;-84
2022/01/13 06:40:21;;;;;;;3.22;1.20;;;;;;;6.95;100.00;102612.41;5128398;27;20062;-83
2022/01/13 06:42:48;;;;;;;2.35;1.10;;;;;;;6.67;100.00;102582.69;5149204;27;20476;-83
2022/01/13 06:45:14;;;;;;;2.00;1.10;;;;;;;6.50;100.00;102560.84;5128266;27;20484;-84
2022/01/13 06:47:42;;;;;;;1.63;1.10;;;;;;;6.82;100.00;102615.78;5127651;27;20047;-84
2022/01/13 06:50:11;;;;;;;1.83;1.20;;;;;;;6.74;100.00;102625.25;5127069;27;20042;-83
2022/01/13 06:52:39;;;;;;;2.72;1.20;;;;;;;6.62;100.00;102613.88;5131142;27;20046;-84
2022/01/13 06:55:06;;;;;;;2.45;1.30;;;;;;;6.64;100.00;102622.59;5130164;27;20047;-84
2022/01/13 06:57:33;;;;;;;3.40;1.10;;;;;;;6.38;100.00;102582.44;5131295;27;20047;-84
2022/01/13 07:00:01;;;;;;;2.17;1.20;;;;;;;6.43;100.00;102592.03;5128226;27;20047;-83
2022/01/13 07:02:30;;;;;;;2.63;1.30;;;;;;;6.30;100.00;102582.34;5151017;27;20126;-83
2022/01/13 07:04:57;;;;;;;2.63;1.30;;;;;;;6.39;100.00;102605.88;5149254;27;20047;-83
2022/01/13 07:07:25;;;;;;;1.98;1.15;;;;;;;6.25;100.00;102595.31;5149814;27;20125;-82
2022/01/13 07:09:52;;;;;;;2.25;1.10;;;;;;;6.20;100.00;102615.22;5130491;27;20050;-83
2022/01/13 07:12:19;;;;;;;1.50;1.10;;;;;;;6.34;100.00;102633.56;5130559;27;20059;-82
2022/01/13 07:14:45;;;;;;;3.03;1.50;;;;;;;6.27;100.00;102624.81;5128942;27;20050;-83
2022/01/13 07:17:12;;;;;;;3.33;1.30;;;;;;;6.15;100.00;102637.69;5124165;27;20893;-83
2022/01/13 07:19:39;;;;;;;2.00;1.20;;;;;;;6.35;100.00;102639.63;5133455;27;20045;-83
2022/01/13 07:22:06;;;;;;;3.22;1.73;;;;;;;6.30;100.00;102625.69;5126263;27;20042;-83
2022/01/13 07:24:33;;;;;;;4.45;1.58;;;;;;;6.16;100.00;102607.34;5126048;27;20101;-83
2022/01/13 07:27:00;;;;;;;3.55;1.52;;;;;;;5.86;100.00;102588.78;5150453;27;20042;-83
2022/01/13 07:29:27;;;;;;;3.00;1.35;;;;;;;5.90;100.00;102602.72;5125343;27;20057;-84
2022/01/13 07:31:53;;;;;;;5.90;2.00;;;;;;;5.74;100.00;102606.84;5127411;27;20057;-84
2022/01/13 07:34:20;;;;;;;4.32;1.80;;;;;;;5.81;100.00;102620.81;5128519;27;20411;-84
2022/01/13 07:36:47;;;;;;;3.20;1.60;;;;;;;5.98;100.00;102624.47;5135832;27;20125;-84
2022/01/13 07:39:14;;;;;;;5.05;1.80;;;;;;;5.83;100.00;102626.88;5152709;27;20049;-83
2022/01/13 07:41:42;;;;;;;5.65;1.75;;;;;;;5.66;100.00;102579.88;5133607;27;20047;-84
2022/01/13 07:44:10;;;;;;;3.03;1.50;;;;;;;6.03;100.00;102642.75;5129695;27;20051;-84
2022/01/13 07:46:37;;;;;;;5.70;1.98;;;;;;;6.15;100.00;102635.09;5145483;27;20049;-83
2022/01/13 07:49:04;;;;;;;4.28;1.77;;;;;;;5.83;100.00;102575.75;5150128;27;20499;-82
2022/01/13 07:51:31;;;;;;;2.63;1.50;;;;;;;5.86;100.00;102601.81;5129680;27;20051;-84
2022/01/13 07:53:57;;;;;;;2.63;1.38;;;;;;;5.96;100.00;102638.34;5154852;27;20049;-83
2022/01/13 07:56:24;;;;;;;2.60;1.40;;;;;;;5.86;100.00;102629.50;5134014;27;20046;-84
2022/01/13 07:58:51;;;;;;;2.75;1.30;;;;;;;5.90;100.00;102645.16;5121722;27;20490;-84
2022/01/13 08:01:18;;;;;;;4.13;1.60;;;;;;;5.90;100.00;102628.72;5124244;27;20045;-84
2022/01/13 08:03:45;;;;;;;2.75;1.50;;;;;;;5.87;100.00;102615.66;5148224;27;20047;-82
2022/01/13 08:06:12;;;;;;;3.10;1.40;;;;;;;5.74;100.00;102618.94;5130714;27;20099;-83
2022/01/13 08:08:40;;;;;;;3.45;1.67;;;;;;;5.79;100.00;102625.09;5135982;27;20049;-83
2022/01/13 08:11:08;;;;;;;4.07;1.88;;;;;;;5.44;100.00;102581.34;5145571;27;20485;-83
2022/01/13 08:13:36;;;;;;;3.42;1.50;;;;;;;5.76;100.00;102638.94;5123844;28;20473;-83
2022/01/13 08:16:07;;;;;;;3.03;1.63;;;;;;;5.79;100.00;102644.19;5115796;27;20172;-83
2022/01/13 08:21:20;;;;;;;2.75;1.48;;;;;;;5.68;100.00;102620.66;5147434;27;20383;-84
2022/01/13 08:23:48;;;;;;;7.43;2.25;;;;;;;5.77;100.00;102625.09;5133556;28;20039;-84
2022/01/13 08:26:14;;;;;;;3.72;1.75;;;;;;;6.07;100.00;102627.22;5136022;27;20476;-84
2022/01/13 08:28:41;;;;;;;3.47;1.60;;;;;;;5.86;100.00;102622.59;5143201;27;20043;-83
2022/01/13 08:31:08;;;;;;;4.25;1.67;;;;;;;6.11;100.00;102648.03;5134834;27;21198;-83
2022/01/13 08:33:35;;;;;;;2.53;1.30;;;;;;;5.81;100.00;102621.66;5136565;27;20051;-83
2022/01/13 08:36:02;;;;;;;2.88;1.38;;;;;;;5.89;100.00;102647.75;5156745;27;20047;-84
2022/01/13 08:38:29;;;;;;;3.67;1.45;;;;;;;6.07;100.00;102661.03;5139223;27;20415;-84
2022/01/13 08:40:58;;;;;;;6.72;2.13;;;;;;;6.05;100.00;102662.69;5138449;27;20130;-84
2022/01/13 08:43:28;;;;;;;5.45;2.00;;;;;;;5.96;100.00;102679.94;5156921;27;20139;-83
2022/01/13 08:45:55;;;;;;;4.93;1.75;;;;;;;6.16;100.00;102682.78;5157083;27;20466;-84
2022/01/13 08:48:22;;;;;;;5.35;1.70;;;;;;;6.11;100.00;102658.44;5139033;27;20055;-84
2022/01/13 08:50:49;;;;;;;4.88;2.00;;;;;;;5.66;100.00;102647.44;5138188;27;20054;-83
2022/01/13 08:53:17;;;;;;;5.07;2.10;;;;;;;5.51;100.00;102653.31;5139662;27;20061;-84
2022/01/13 08:55:45;;;;;;;3.88;1.75;;;;;;;5.65;100.00;102638.78;5130170;27;20035;-83
2022/01/13 08:58:12;;;;;;;3.95;1.75;;;;;;;5.79;100.00;102656.28;5123676;27;20047;-83
2022/01/13 09:00:41;;;;;;;6.00;2.53;;;;;;;5.91;100.00;102666.84;5127151;27;20565;-84
2022/01/13 09:03:08;;;;;;;3.63;1.50;;;;;;;6.42;100.00;102657.91;5128642;27;20126;-85
2022/01/13 09:05:37;;;;;;;4.35;1.75;;;;;;;6.74;100.00;102672.97;5129530;27;20053;-84
2022/01/13 09:08:09;;;;;;;5.72;1.90;;;;;;;6.82;100.00;102647.91;5133483;27;20051;-85
2022/01/13 09:10:41;;;;;;;4.07;1.70;;;;;;;7.09;100.00;102668.94;5136682;27;20046;-85
2022/01/13 09:13:15;;;;;;;2.60;1.40;;;;;;;7.63;100.00;102662.34;5137466;27;20126;-85
2022/01/13 09:16:02;;;;;;;4.82;1.70;;;;;;;7.44;100.00;102673.53;5131931;27;20046;-85
2022/01/13 09:18:58;;;;;;;6.28;1.70;;;;;;;7.25;100.00;102669.94;5134526;27;20150;-83
2022/01/13 09:21:28;;;;;;;2.50;1.23;;;;;;;7.35;100.00;102666.53;5149053;27;20502;-84
2022/01/13 09:23:56;;;;;;;1.90;1.10;;;;;;;7.51;100.00;102680.56;5128974;27;20042;-84
2022/01/13 09:26:22;;;;;;;1.50;1.15;;;;;;;7.58;100.00;102677.13;5137239;27;20055;-84
2022/01/13 09:28:52;;;;;;;3.85;1.33;;;;;;;7.57;100.00;102678.81;5131144;27;20047;-84
2022/01/13 09:31:19;;;;;;;1.67;1.05;;;;;;;7.73;100.00;102685.00;5125686;27;20766;-84
2022/01/13 09:33:46;;;;;;;1.75;1.10;;;;;;;7.58;100.00;102662.34;5124538;27;20047;-85
2022/01/13 09:36:13;;;;;;;6.70;2.35;;;;;;;7.72;100.00;102665.03;5133014;27;20057;-84
2022/01/13 09:38:39;;;;;;;4.00;1.40;;;;;;;7.85;100.00;102663.34;5133271;27;20528;-83
2022/01/13 09:41:06;;;;;;;2.78;1.13;;;;;;;7.78;100.00;102638.97;5131682;27;20043;-83
2022/01/13 09:43:33;;;;;;;2.10;1.10;;;;;;;7.94;100.00;102689.47;5130207;27;20052;-83
2022/01/13 09:46:00;;;;;;;2.22;1.20;;;;;;;8.20;100.00;102661.72;5122578;27;20074;-83
2022/01/13 09:48:28;;;;;;;1.90;1.17;;;;;;;8.24;100.00;102669.56;5142859;27;20143;-83
2022/01/13 09:50:55;;;;;;;4.15;1.58;;;;;;;8.49;100.00;102694.03;5132663;27;20136;-83
2022/01/13 09:53:22;;;;;;;6.00;2.05;;;;;;;8.54;100.00;102694.91;5134956;27;20047;-83
2022/01/13 09:55:49;;;;;;;8.73;2.22;;;;;;;8.58;100.00;102690.56;5124196;27;20047;-83
2022/01/13 09:58:16;;;;;;;6.30;1.90;;;;;;;8.38;100.00;102687.88;5127021;27;20096;-83
2022/01/13 10:00:44;;;;;;;8.02;1.70;;;;;;;8.81;100.00;102677.53;5119313;27;20043;-83
2022/01/13 10:03:25;;;;;;;6.32;1.63;;;;;;;8.83;100.00;102669.72;5125416;27;20500;-83
2022/01/13 10:05:57;;;;;;;3.30;1.60;;;;;;;9.10;100.00;102682.78;5130303;27;20122;-82
2022/01/13 10:08:50;;;;;;;4.90;1.65;;;;;;;9.22;100.00;102686.25;5144841;27;20043;-83
2022/01/13 10:11:44;;;;;;;4.90;1.30;;;;;;;9.52;100.00;102690.56;5130881;27;20049;-83
2022/01/13 10:16:49;;;;;;;5.07;1.50;;;;;;;9.74;100.00;102696.63;5139887;27;19945;-83
2022/01/13 10:19:36;;;;;;;3.75;1.38;;;;;;;9.78;100.00;102700.97;5131235;27;20046;-83
2022/01/13 10:22:14;;;;;;;2.85;1.30;;;;;;;9.79;100.00;102679.19;5128550;27;20076;-83
2022/01/13 10:24:44;;;;;;;4.70;1.42;;;;;;;9.92;100.00;102703.56;5133691;27;20047;-83
2022/01/13 10:27:14;;;;;;;4.53;1.15;;;;;;;10.15;100.00;102698.22;5135226;27;20046;-84
2022/01/13 10:29:46;;;;;;;3.95;1.20;;;;;;;10.12;100.00;102703.47;5128599;27;20047;-83
2022/01/13 10:32:26;;;;;;;3.80;1.20;;;;;;;9.85;100.00;102702.69;5135003;27;20046;-83
2022/01/13 10:35:02;;;;;;;3.05;1.00;;;;;;;10.29;100.00;102705.13;5124661;27;20396;-82
2022/01/13 10:37:43;;;;;;;1.35;1.00;;;;;;;10.53;100.00;102709.41;5133301;27;20069;-83
2022/01/13 10:40:26;;;;;;;1.25;0.95;;;;;;;10.37;100.00;102717.34;5134232;27;20126;-83
2022/01/13 10:45:34;;;;;;;2.55;1.00;;;;;;;10.34;100.00;102690.31;5147934;27;20692;-82
2022/01/13 10:48:04;;;;;;;3.17;1.15;;;;;;;10.55;100.00;102716.41;5133698;27;20108;-83
2022/01/13 10:50:44;;;;;;;4.20;1.20;;;;;;;10.47;100.00;102701.59;5152643;27;20049;-83
2022/01/13 10:53:33;;;;;;;2.50;1.10;;;;;;;10.85;100.00;102703.94;5124772;27;20054;-83
2022/01/13 10:56:05;;;;;;;1.42;1.00;;;;;;;10.94;100.00;102703.91;5125285;27;20110;-83
2022/01/13 10:58:34;;;;;;;2.53;1.08;;;;;;;11.06;100.00;102704.69;5127194;27;20051;-83
2022/01/13 11:01:03;;;;;;;1.27;0.90;;;;;;;10.82;100.00;102712.72;5128804;27;20061;-85
2022/01/13 11:03:34;;;;;;;2.17;1.10;;;;;;;10.90;100.00;102711.78;5128188;27;20125;-83
2022/01/13 11:06:04;;;;;;;3.20;1.17;;;;;;;10.90;100.00;102696.91;5143908;27;20058;-82
2022/01/13 11:08:44;;;;;;;3.70;1.20;;;;;;;11.07;100.00;102703.81;5132102;27;20050;-85
2022/01/13 11:11:24;;;;;;;2.65;1.13;;;;;;;10.94;100.00;102703.00;5134057;27;20043;-86
2022/01/13 11:13:53;;;;;;;2.88;1.40;;;;;;;10.44;100.00;102657.94;5122553;27;20055;-86
2022/01/13 11:16:30;;;;;;;2.67;1.20;;;;;;;10.79;100.00;102680.44;5131678;27;20051;-86
2022/01/13 11:19:10;;;;;;;2.42;1.23;;;;;;;10.87;100.00;102665.53;5150242;27;20133;-87
2022/01/13 11:21:38;;;;;;;1.75;1.02;;;;;;;10.84;100.00;102673.41;5128712;27;20396;-86
2022/01/13 11:24:07;;;;;;;4.63;1.77;;;;;;;10.72;100.00;102655.16;5133316;27;20039;-87
2022/01/13 11:26:34;;;;;;;4.15;1.63;;;;;;;11.24;100.00;102703.66;5133552;27;20744;-87
2022/01/13 11:29:04;;;;;;;5.38;1.67;;;;;;;11.14;100.00;102677.50;5123715;27;20055;-88
2022/01/13 11:31:31;;;;;;;3.15;1.27;;;;;;;11.27;100.00;102656.44;5132815;27;20121;-87
2022/01/13 11:34:00;;;;;;;3.80;1.20;;;;;;;11.44;100.00;102693.84;5119592;27;20510;-87
2022/01/13 11:36:28;;;;;;;1.63;0.95;;;;;;;11.50;100.00;102692.91;5134235;27;20061;-87
2022/01/13 11:39:01;;;;;;;2.30;1.17;;;;;;;11.29;100.00;102694.84;5132322;27;20043;-87
2022/01/13 11:41:29;;;;;;;1.13;0.98;;;;;;;11.15;100.00;102681.00;5134282;27;20044;-87
2022/01/13 11:44:17;;;;;;;1.38;0.90;;;;;;;11.57;100.00;102682.31;5151607;27;20137;-87
2022/01/13 11:46:46;;;;;;;1.52;1.00;;;;;;;11.74;100.00;102684.78;5156791;27;20047;-86
2022/01/13 11:49:16;;;;;;;1.65;1.02;;;;;;;11.34;100.00;102598.63;5117186;27;20126;-88
2022/01/13 11:51:45;;;;;;;1.75;1.10;;;;;;;11.91;100.00;102675.88;5130427;27;20515;-85
2022/01/13 11:54:25;;;;;;;1.85;1.10;;;;;;;11.86;100.00;102644.38;5145028;27;20610;-86
2022/01/13 11:57:19;;;;;;;2.63;1.10;;;;;;;11.96;100.00;102674.91;5141006;27;20046;-86
2022/01/13 11:59:58;;;;;;;1.10;0.80;;;;;;;12.24;100.00;102664.06;5134050;27;20046;-87
2022/01/13 12:02:31;;;;;;;1.70;1.00;;;;;;;12.21;100.00;102676.38;5153360;27;20046;-85